Time;durP1;ratioP1;P1;durP2;ratioP2;P2;SDS_P1;SDS_P2;PMS_P1;PMS_P2;Temp;Humidity;BMP_temperature;BMP_pressure;BME280_temperature;BME280_humidity;BME280_pressure;Samples;Min_cycle;Max_cycle;Signal;HPM_P1;HPM_P2
2020/12/11 00:00:16;;;;;;;33.10;18.55;;;2.90;87.50;;;3.06;71.58;99264.66;4972226;28;20125;-82
2020/12/11 00:02:43;;;;;;;34.92;18.80;;;3.00;87.50;;;3.05;71.43;99255.75;4971978;28;20121;-82
2020/12/11 00:05:10;;;;;;;35.03;19.55;;;3.00;87.50;;;3.04;71.66;99254.06;4977099;28;20555;-82
2020/12/11 00:07:38;;;;;;;34.20;18.67;;;3.00;87.40;;;3.06;71.36;99246.66;4971584;28;20077;-82
2020/12/11 00:10:07;;;;;;;36.13;18.92;;;3.00;87.50;;;3.10;71.08;99241.81;4971664;28;20039;-82
2020/12/11 00:12:34;;;;;;;34.50;18.40;;;3.00;87.40;;;3.09;71.57;99229.38;4971704;28;20043;-82
2020/12/11 00:15:01;;;;;;;35.00;18.35;;;3.00;87.20;;;3.12;70.97;99216.47;4976903;28;20046;-82
2020/12/11 00:17:29;;;;;;;34.53;18.27;;;3.00;87.30;;;3.12;71.20;99208.41;4971887;28;20066;-82
2020/12/11 00:19:56;;;;;;;38.88;19.10;;;3.10;87.30;;;3.13;71.28;99203.84;4971700;28;20125;-82
2020/12/11 00:22:23;;;;;;;33.80;19.15;;;3.10;87.40;;;3.13;71.61;99201.16;4970305;28;20142;-82
2020/12/11 00:24:51;;;;;;;37.97;19.33;;;3.10;87.40;;;3.12;71.28;99196.78;4976407;28;20109;-82
2020/12/11 00:27:18;;;;;;;34.53;18.52;;;3.10;87.20;;;3.14;70.96;99184.00;4967649;28;20092;-82
2020/12/11 00:29:45;;;;;;;33.42;18.52;;;3.10;87.30;;;3.21;71.04;99184.19;4970207;28;20139;-82
2020/12/11 00:32:12;;;;;;;32.72;18.30;;;3.10;87.30;;;3.18;71.70;99180.00;4971523;28;20043;-82
2020/12/11 00:34:39;;;;;;;35.03;17.50;;;3.10;87.40;;;3.14;71.47;99173.25;4974911;28;20070;-82
2020/12/11 00:37:07;;;;;;;32.55;18.10;;;3.20;87.50;;;3.21;71.16;99168.88;4971284;28;20145;-82
2020/12/11 00:39:34;;;;;;;31.98;17.92;;;3.20;87.30;;;3.27;71.05;99167.38;4971462;28;20039;-82
2020/12/11 00:42:00;;;;;;;32.50;17.92;;;3.20;87.20;;;3.26;71.74;99161.16;4971383;28;20515;-82
2020/12/11 00:44:27;;;;;;;31.42;17.55;;;3.20;87.10;;;3.23;71.24;99158.78;4974794;28;20100;-82
2020/12/11 00:46:55;;;;;;;32.88;17.67;;;3.20;87.30;;;3.22;71.80;99150.91;4972642;28;20085;-82
2020/12/11 00:49:22;;;;;;;29.13;16.70;;;3.20;87.50;;;3.26;71.34;99150.41;4969845;28;20680;-82
2020/12/11 00:51:55;;;;;;;34.05;17.98;;;3.50;87.70;;;3.25;71.94;99147.88;4969976;28;20061;-83
2020/12/11 00:54:23;;;;;;;34.97;17.45;;;3.20;87.30;;;3.24;71.61;99146.22;4972519;28;20042;-82
2020/12/11 00:56:50;;;;;;;32.15;17.08;;;3.20;87.40;;;3.22;71.94;99148.22;4971375;28;20055;-82
2020/12/11 00:59:17;;;;;;;30.27;16.95;;;3.40;87.60;;;3.23;71.57;99144.53;4969790;28;20695;-82
2020/12/11 01:01:44;;;;;;;31.08;17.58;;;3.20;87.40;;;3.27;71.53;99140.47;4970922;28;20057;-82
2020/12/11 01:04:10;;;;;;;32.13;16.92;;;3.20;87.60;;;3.28;72.25;99137.63;4970533;28;20126;-82
2020/12/11 01:06:37;;;;;;;30.50;16.38;;;3.20;87.60;;;3.29;71.64;99138.44;4970804;28;20050;-82
2020/12/11 01:09:06;;;;;;;28.30;16.15;;;3.30;87.60;;;3.27;71.39;99135.09;4969693;28;20086;-82
2020/12/11 01:11:33;;;;;;;32.80;17.40;;;3.30;87.40;;;3.27;71.73;99135.94;4971267;28;20701;-82
2020/12/11 01:14:00;;;;;;;28.65;16.30;;;3.30;87.60;;;3.30;71.47;99129.38;4969034;28;20082;-82
2020/12/11 01:16:26;;;;;;;28.60;15.95;;;3.40;87.50;;;3.35;72.12;99127.03;4971166;28;20049;-83
2020/12/11 01:18:53;;;;;;;29.85;15.82;;;3.40;87.60;;;3.38;72.06;99115.09;4969496;28;20141;-82
2020/12/11 01:21:20;;;;;;;28.27;16.08;;;3.40;87.50;;;3.42;71.71;99108.34;4973223;28;20555;-82
2020/12/11 01:23:47;;;;;;;27.60;16.00;;;3.40;87.40;;;3.44;72.29;99099.06;4974822;28;20155;-82
2020/12/11 01:26:14;;;;;;;28.70;16.10;;;3.40;87.60;;;3.51;71.71;99086.63;4974731;28;20134;-82
2020/12/11 01:28:41;;;;;;;28.13;16.00;;;3.40;87.50;;;3.50;71.49;99086.78;4976898;28;20051;-82
2020/12/11 01:31:08;;;;;;;31.60;17.35;;;3.40;87.50;;;3.47;71.76;99082.59;4982489;28;20054;-82
2020/12/11 01:33:34;;;;;;;29.48;16.63;;;3.50;87.50;;;3.50;71.51;99087.66;4975072;28;20039;-82
2020/12/11 01:36:01;;;;;;;27.55;15.35;;;3.50;87.50;;;3.48;71.56;99076.22;4974190;28;20078;-83
2020/12/11 01:38:28;;;;;;;30.63;15.80;;;3.50;87.60;;;3.49;71.67;99079.75;4974419;28;20142;-82
2020/12/11 01:40:54;;;;;;;30.65;16.15;;;3.50;87.50;;;3.51;72.06;99081.25;4974541;28;20050;-82
2020/12/11 01:43:22;;;;;;;27.50;16.02;;;3.50;87.50;;;3.52;72.16;99069.47;4973972;28;20047;-82
2020/12/11 01:45:49;;;;;;;29.73;16.95;;;3.50;87.50;;;3.59;71.69;99063.41;4973573;28;20561;-82
2020/12/11 01:48:16;;;;;;;27.85;15.63;;;3.50;87.30;;;3.61;71.20;99061.38;4974458;28;20464;-82
2020/12/11 01:50:43;;;;;;;27.88;15.90;;;3.50;87.20;;;3.57;71.57;99060.03;4974205;28;20563;-82
2020/12/11 01:53:10;;;;;;;27.85;16.40;;;3.50;87.10;;;3.57;71.34;99062.72;4974046;28;20066;-82
2020/12/11 01:55:39;;;;;;;29.73;16.75;;;3.60;87.10;;;3.58;71.78;99057.19;4973584;28;20127;-82
2020/12/11 01:58:14;;;;;;;27.08;15.70;;;3.60;87.20;;;3.60;71.58;99046.22;4966515;28;20499;-82
2020/12/11 02:00:43;;;;;;;29.65;16.67;;;3.60;87.30;;;3.57;71.67;99043.91;4974010;28;20047;-82
2020/12/11 02:03:11;;;;;;;31.15;16.95;;;3.60;87.50;;;3.58;72.14;99034.81;4974182;28;20846;-82
2020/12/11 02:05:38;;;;;;;28.92;16.35;;;3.60;87.30;;;3.60;71.50;99033.63;4973067;28;20499;-82
2020/12/11 02:08:05;;;;;;;28.98;16.83;;;3.60;87.30;;;3.61;71.83;99029.91;4974026;28;20077;-82
2020/12/11 02:10:32;;;;;;;28.60;16.55;;;3.60;87.20;;;3.61;71.92;99026.41;4973938;28;20074;-82
2020/12/11 02:13:06;;;;;;;30.60;17.45;;;3.60;87.30;;;3.62;72.18;99030.78;4973779;28;20081;-82
2020/12/11 02:15:34;;;;;;;28.17;15.90;;;3.60;87.20;;;3.61;71.58;99037.16;4973318;28;20054;-82
2020/12/11 02:18:03;;;;;;;31.23;17.35;;;3.60;87.20;;;3.62;71.91;99022.69;4972968;28;20134;-82
2020/12/11 02:20:30;;;;;;;29.35;16.67;;;3.60;87.10;;;3.65;71.67;99008.88;4973659;28;20468;-82
2020/12/11 02:22:58;;;;;;;30.85;17.35;;;3.70;87.40;;;3.65;72.05;99008.88;4973532;28;20049;-82
2020/12/11 02:25:25;;;;;;;28.92;16.42;;;3.70;87.50;;;3.64;71.81;98999.97;4978663;28;20074;-82
2020/12/11 02:27:51;;;;;;;30.52;16.85;;;3.70;87.40;;;3.66;71.61;98994.44;4973664;28;20125;-82
2020/12/11 02:30:19;;;;;;;28.27;16.08;;;3.70;87.30;;;3.72;71.49;98985.63;4973108;28;20138;-82
2020/12/11 02:32:46;;;;;;;31.00;16.13;;;3.70;87.20;;;3.68;71.04;98978.94;4963972;28;20122;-82
2020/12/11 02:35:13;;;;;;;29.80;16.58;;;3.70;87.00;;;3.68;71.33;98962.81;4978435;28;20051;-82
2020/12/11 02:37:40;;;;;;;29.35;15.75;;;3.70;87.00;;;3.70;71.24;98958.09;4973210;28;20650;-82
2020/12/11 02:40:08;;;;;;;28.45;16.08;;;3.70;87.00;;;3.66;71.73;98956.75;4972045;28;20039;-82
2020/12/11 02:42:36;;;;;;;29.58;16.45;;;3.70;87.10;;;3.64;71.15;98951.56;4973318;28;20142;-82
2020/12/11 02:45:04;;;;;;;28.73;16.23;;;3.70;86.90;;;3.67;71.23;98945.81;4970683;28;20579;-82
2020/12/11 02:47:32;;;;;;;28.08;16.25;;;3.80;86.90;;;3.68;71.48;98947.50;4973233;28;20050;-82
2020/12/11 02:50:01;;;;;;;24.95;15.45;;;3.80;87.00;;;3.72;71.57;98940.72;4973246;28;20054;-82
2020/12/11 02:52:28;;;;;;;27.75;16.17;;;3.80;86.80;;;3.71;70.81;98938.22;4972918;28;20034;-82
2020/12/11 02:54:54;;;;;;;26.63;15.38;;;3.70;86.80;;;3.71;71.10;98948.97;4977976;28;20125;-82
2020/12/11 02:57:22;;;;;;;26.13;16.00;;;3.80;86.70;;;3.70;71.30;98933.88;4973061;28;20125;-82
2020/12/11 02:59:49;;;;;;;25.58;15.18;;;3.80;86.60;;;3.71;70.83;98938.22;4972764;28;20474;-82
2020/12/11 03:02:16;;;;;;;26.42;15.00;;;3.80;86.50;;;3.65;71.20;98944.31;4973004;28;20468;-82
2020/12/11 03:04:42;;;;;;;28.10;16.55;;;3.80;86.30;;;3.65;71.39;98938.94;4975613;28;20038;-82
2020/12/11 03:07:09;;;;;;;29.90;16.23;;;3.80;86.40;;;3.66;71.23;98940.63;4972952;28;20122;-82
2020/12/11 03:09:36;;;;;;;26.83;15.68;;;3.70;86.50;;;3.67;70.82;98939.59;4972849;28;20130;-82
2020/12/11 03:12:02;;;;;;;27.92;15.68;;;3.70;86.50;;;3.64;70.99;98946.19;4972729;28;20570;-82
2020/12/11 03:14:30;;;;;;;26.40;16.00;;;3.70;86.60;;;3.69;71.31;98951.00;4975399;28;20125;-82
2020/12/11 03:16:57;;;;;;;26.30;15.25;;;3.70;86.30;;;3.68;71.08;98941.28;4973510;28;20079;-82
2020/12/11 03:19:24;;;;;;;26.25;15.57;;;3.70;86.40;;;3.70;71.00;98941.94;4971045;28;20522;-82
2020/12/11 03:21:50;;;;;;;24.63;15.20;;;3.70;86.60;;;3.68;70.59;98939.41;4972671;28;20050;-82
2020/12/11 03:24:17;;;;;;;27.17;15.18;;;3.70;86.30;;;3.62;70.68;98945.53;4974733;28;20070;-82
2020/12/11 03:26:44;;;;;;;25.13;14.75;;;3.70;86.30;;;3.64;71.07;98954.25;4974807;28;20582;-82
2020/12/11 03:29:10;;;;;;;30.80;14.95;;;3.70;86.40;;;3.59;71.23;98950.41;4972593;28;20074;-82
2020/12/11 03:31:38;;;;;;;22.10;13.25;;;3.70;86.20;;;3.61;70.90;98959.97;4972389;28;20126;-82
2020/12/11 03:34:05;;;;;;;24.90;14.77;;;3.70;86.00;;;3.61;70.42;98957.28;4971528;28;20123;-82
2020/12/11 03:36:31;;;;;;;26.48;14.55;;;3.70;86.10;;;3.67;70.64;98950.34;4976369;28;20127;-82
2020/12/11 03:38:58;;;;;;;25.88;14.98;;;3.70;86.30;;;3.65;70.84;98945.16;4972043;28;20079;-82
2020/12/11 03:41:25;;;;;;;26.92;15.20;;;3.70;86.10;;;3.63;70.80;98949.03;4972310;28;20047;-82
2020/12/11 03:43:51;;;;;;;23.52;13.82;;;3.70;86.20;;;3.61;70.16;98943.00;4971628;28;20468;-82
2020/12/11 03:46:19;;;;;;;24.58;13.80;;;3.70;86.10;;;3.63;71.00;98940.97;4972068;28;20049;-82
2020/12/11 03:48:48;;;;;;;24.15;13.95;;;3.60;86.10;;;3.68;70.38;98943.97;4972118;28;20566;-82
2020/12/11 03:51:19;;;;;;;23.58;13.77;;;3.60;86.00;;;3.61;70.81;98943.00;4972080;28;20130;-82
2020/12/11 03:53:46;;;;;;;21.38;13.02;;;3.60;86.10;;;3.63;70.58;98936.41;4969938;28;20074;-82
2020/12/11 03:56:14;;;;;;;24.00;14.15;;;3.70;86.20;;;3.63;70.38;98927.53;4971705;28;20470;-82
2020/12/11 03:58:42;;;;;;;25.13;14.07;;;3.60;86.20;;;3.62;70.64;98923.19;4971826;28;20078;-82
2020/12/11 04:01:12;;;;;;;23.10;13.60;;;3.60;86.00;;;3.59;70.70;98918.13;4971958;28;20134;-82
2020/12/11 04:03:40;;;;;;;21.27;12.98;;;3.60;86.10;;;3.61;70.76;98903.47;4971446;28;20063;-82
2020/12/11 04:06:08;;;;;;;21.70;12.90;;;3.60;86.00;;;3.66;70.92;98905.66;4976608;28;20057;-82
2020/12/11 04:08:37;;;;;;;20.73;12.23;;;3.60;86.00;;;3.64;70.10;98905.00;4971699;28;20122;-82
2020/12/11 04:11:05;;;;;;;20.42;12.80;;;3.60;85.90;;;3.67;70.72;98904.63;4971817;28;20125;-82
2020/12/11 04:13:32;;;;;;;21.05;12.70;;;3.60;85.90;;;3.68;70.65;98892.84;4971566;28;20456;-82
2020/12/11 04:16:00;;;;;;;20.85;12.85;;;3.60;85.80;;;3.69;70.48;98891.81;4976727;28;20051;-82
2020/12/11 04:18:27;;;;;;;18.33;11.93;;;3.70;86.10;;;3.71;70.55;98890.66;4971592;28;20070;-82
2020/12/11 04:20:56;;;;;;;21.10;12.20;;;3.70;86.00;;;3.72;70.30;98886.91;4971558;28;20484;-82
2020/12/11 04:23:24;;;;;;;19.95;12.48;;;3.70;86.00;;;3.71;70.65;98885.25;4970377;28;20098;-82
2020/12/11 04:25:51;;;;;;;18.48;11.57;;;3.70;86.10;;;3.72;70.54;98881.53;4967450;28;20539;-82
2020/12/11 04:28:18;;;;;;;21.00;12.40;;;3.70;86.10;;;3.71;70.26;98873.66;4971210;28;20070;-82
2020/12/11 04:30:45;;;;;;;20.33;12.70;;;3.70;86.10;;;3.67;70.80;98861.56;4971199;28;20042;-82
2020/12/11 04:33:12;;;;;;;18.85;11.52;;;3.70;86.10;;;3.69;70.59;98856.84;4971198;28;20074;-82
2020/12/11 04:35:39;;;;;;;19.08;11.93;;;3.70;86.20;;;3.75;70.76;98864.22;4970563;28;20101;-82
2020/12/11 04:38:06;;;;;;;19.63;11.98;;;3.90;86.30;;;3.78;70.40;98857.63;4971140;28;20047;-82
2020/12/11 04:40:33;;;;;;;18.00;11.25;;;3.70;86.00;;;3.78;70.41;98853.06;4971122;28;20130;-82
2020/12/11 04:43:01;;;;;;;21.15;12.25;;;3.80;85.90;;;3.81;70.11;98844.66;4970793;28;20050;-82
2020/12/11 04:45:27;;;;;;;20.40;12.57;;;3.80;85.80;;;3.83;70.33;98839.91;4975907;28;20062;-82
2020/12/11 04:47:55;;;;;;;18.80;11.95;;;3.80;85.70;;;3.79;70.22;98833.25;4970818;28;20431;-82
2020/12/11 04:50:22;;;;;;;18.35;11.68;;;3.90;85.80;;;3.80;70.02;98834.88;4970861;28;20077;-82
2020/12/11 04:52:50;;;;;;;17.70;11.05;;;3.90;85.70;;;3.77;70.39;98819.13;4970436;28;20126;-82
2020/12/11 04:55:18;;;;;;;18.92;11.63;;;3.90;85.90;;;3.82;70.07;98815.88;4974156;28;20157;-82
2020/12/11 04:57:49;;;;;;;18.73;11.88;;;3.90;85.70;;;3.86;70.66;98812.63;4970711;28;20078;-82
2020/12/11 05:00:20;;;;;;;20.08;12.45;;;3.90;85.50;;;3.85;70.41;98816.34;4971164;28;20468;-82
2020/12/11 05:02:47;;;;;;;18.52;11.50;;;3.90;85.40;;;3.86;69.35;98818.00;4970879;28;20077;-82
2020/12/11 05:05:17;;;;;;;20.23;11.95;;;4.00;85.20;;;3.80;69.70;98813.38;4975584;28;20039;-82
2020/12/11 05:07:44;;;;;;;16.60;10.73;;;3.90;85.30;;;3.82;70.37;98807.81;4970713;28;20435;-82
2020/12/11 05:10:12;;;;;;;19.65;11.65;;;3.90;85.60;;;3.83;70.15;98798.72;4970976;28;20042;-82
2020/12/11 05:12:39;;;;;;;19.30;11.95;;;3.90;85.50;;;3.81;70.16;98785.47;4970574;28;20074;-82
2020/12/11 05:15:09;;;;;;;17.25;10.95;;;3.90;85.50;;;3.90;69.81;98781.66;4974031;28;20057;-82
2020/12/11 05:17:37;;;;;;;19.23;11.88;;;3.90;85.40;;;3.87;69.94;98781.19;4971056;28;20049;-82
2020/12/11 05:20:06;;;;;;;19.15;11.80;;;3.90;85.30;;;3.90;69.77;98768.22;4973724;28;20074;-81
2020/12/11 05:22:34;;;;;;;18.90;12.02;;;4.00;85.20;;;3.95;69.54;98772.19;4973810;28;20129;-81
2020/12/11 05:25:02;;;;;;;19.40;11.45;;;4.00;85.20;;;3.90;70.08;98776.28;4982714;28;20039;-80
2020/12/11 05:27:32;;;;;;;21.75;12.13;;;3.90;85.30;;;3.88;69.68;98772.94;4986980;28;20069;-80
2020/12/11 05:30:00;;;;;;;20.38;12.10;;;3.90;85.10;;;3.90;69.51;98749.38;4985664;28;20078;-80
2020/12/11 05:32:39;;;;;;;19.70;11.93;;;3.90;85.20;;;3.88;69.78;98762.19;4984527;28;20054;-80
2020/12/11 05:35:08;;;;;;;20.67;12.18;;;3.90;85.20;;;3.87;69.63;98757.81;4988826;28;20054;-80
2020/12/11 05:37:48;;;;;;;21.20;12.55;;;3.90;85.30;;;3.85;70.01;98749.09;4984166;28;20074;-80
2020/12/11 05:40:19;;;;;;;22.17;13.45;;;3.90;85.40;;;3.84;69.84;98755.47;4976649;28;20050;-79
2020/12/11 05:43:08;;;;;;;19.27;12.32;;;3.90;85.30;;;3.87;70.19;98746.22;4982586;28;20053;-80
2020/12/11 05:45:37;;;;;;;19.83;11.73;;;3.90;85.30;;;3.88;69.73;98745.16;4983572;28;20479;-80
2020/12/11 05:48:06;;;;;;;19.95;12.25;;;3.90;85.40;;;3.88;69.88;98740.66;4983174;28;20122;-79
2020/12/11 05:50:34;;;;;;;20.85;12.32;;;3.90;85.30;;;3.87;69.44;98732.75;4982140;28;20253;-79
2020/12/11 05:53:01;;;;;;;18.10;11.50;;;3.90;85.30;;;3.89;69.75;98731.53;4983511;28;20055;-79
2020/12/11 05:55:28;;;;;;;21.48;12.82;;;3.90;85.20;;;3.95;69.59;98718.38;4983334;28;20082;-80
2020/12/11 05:57:57;;;;;;;18.45;11.60;;;3.90;85.30;;;3.92;69.57;98719.56;4983196;28;20571;-80
2020/12/11 06:00:24;;;;;;;20.77;12.52;;;3.90;85.30;;;3.92;69.35;98704.28;4983998;28;20066;-79
2020/12/11 06:02:53;;;;;;;22.77;12.75;;;3.90;85.10;;;3.92;69.19;98706.97;4983657;28;20064;-79
2020/12/11 06:05:23;;;;;;;18.42;11.70;;;3.90;85.30;;;3.87;69.40;98685.16;4988980;28;20110;-80
2020/12/11 06:07:51;;;;;;;18.98;11.95;;;3.90;85.10;;;3.89;69.70;98672.34;4986386;28;20067;-79
2020/12/11 06:10:27;;;;;;;21.13;12.15;;;3.90;85.20;;;3.94;69.61;98674.47;4987480;28;20062;-80
2020/12/11 06:12:53;;;;;;;20.38;12.20;;;3.90;85.10;;;3.91;69.88;98664.09;4988264;28;20055;-80
2020/12/11 06:15:35;;;;;;;19.60;11.90;;;3.90;85.20;;;3.92;69.31;98657.66;4987999;28;20042;-80
2020/12/11 06:18:10;;;;;;;20.13;12.27;;;3.90;85.00;;;3.95;69.62;98640.31;4986938;28;20073;-80
2020/12/11 06:20:38;;;;;;;19.90;12.45;;;3.90;84.90;;;3.95;69.51;98640.31;4986963;28;20113;-80
2020/12/11 06:23:25;;;;;;;21.65;13.23;;;4.00;84.80;;;3.97;69.33;98636.41;4980390;28;20063;-80
2020/12/11 06:25:54;;;;;;;22.20;13.10;;;4.00;84.80;;;3.99;69.40;98628.16;4985663;28;20043;-80
2020/12/11 06:28:40;;;;;;;20.45;12.75;;;4.00;84.90;;;3.97;69.76;98625.66;4980595;28;20074;-82
2020/12/11 06:31:09;;;;;;;20.02;12.15;;;4.10;85.10;;;3.98;69.30;98626.47;4968167;28;20069;-81
2020/12/11 06:33:39;;;;;;;20.10;12.15;;;4.00;84.70;;;3.95;69.38;98610.72;4965181;28;20078;-81
2020/12/11 06:36:08;;;;;;;19.58;12.25;;;4.00;84.70;;;3.96;69.79;98612.38;4969085;28;20043;-81
2020/12/11 06:38:49;;;;;;;20.92;12.77;;;4.00;84.70;;;3.96;69.59;98607.00;4973144;28;20053;-80
2020/12/11 06:41:39;;;;;;;;;;;4.10;84.90;;;4.02;69.49;98601.69;4971051;28;20551;-80
2020/12/11 06:44:18;;;;;;;19.75;12.38;;;4.00;84.80;;;4.03;69.35;98594.44;4960558;28;19922;-80
2020/12/11 06:47:05;;;;;;;21.25;12.20;;;4.00;84.80;;;3.99;69.37;98591.31;4976526;28;20049;-81
2020/12/11 06:49:32;;;;;;;21.67;12.60;;;4.00;84.70;;;4.01;69.64;98583.03;4967023;28;20523;-81
2020/12/11 06:52:13;;;;;;;19.90;12.55;;;4.00;84.70;;;4.00;69.82;98581.34;4968645;28;20477;-81
2020/12/11 06:54:55;;;;;;;21.58;13.18;;;4.00;84.90;;;3.99;69.93;98577.03;4984881;28;20039;-81
2020/12/11 06:57:45;;;;;;;22.88;13.68;;;4.00;84.80;;;3.99;69.80;98561.69;4984397;28;20043;-81
2020/12/11 07:00:35;;;;;;;21.38;13.07;;;4.00;84.80;;;4.02;69.98;98568.56;4983814;28;20055;-81
2020/12/11 07:03:31;;;;;;;18.90;12.45;;;4.10;84.90;;;4.05;69.32;98558.22;4984364;28;20479;-81
2020/12/11 07:06:12;;;;;;;20.42;12.57;;;4.00;84.80;;;4.07;69.90;98561.59;4983766;28;20046;-81
2020/12/11 07:08:39;;;;;;;20.85;12.38;;;4.00;84.90;;;4.05;69.85;98562.78;4984671;28;20503;-81
2020/12/11 07:11:15;;;;;;;21.38;12.73;;;4.10;85.00;;;4.05;69.61;98558.22;4985173;28;20058;-81
2020/12/11 07:13:51;;;;;;;19.95;12.00;;;4.10;85.20;;;4.09;70.03;98556.00;4966171;29;20043;-81
2020/12/11 07:16:19;;;;;;;21.85;12.73;;;4.10;85.20;;;4.01;70.26;98550.75;4965688;28;20047;-81
2020/12/11 07:18:46;;;;;;;20.15;12.40;;;4.10;85.30;;;4.02;69.51;98552.44;4977227;28;20070;-81
2020/12/11 07:21:13;;;;;;;20.83;12.80;;;4.20;85.30;;;4.03;69.67;98554.06;4985096;28;20117;-81
2020/12/11 07:23:41;;;;;;;20.85;12.45;;;4.10;85.30;;;4.04;69.73;98548.50;4985135;28;20070;-80
2020/12/11 07:26:08;;;;;;;23.00;12.88;;;4.10;85.30;;;4.05;69.86;98558.22;4984428;28;20046;-81
2020/12/11 07:28:35;;;;;;;20.83;12.73;;;4.10;85.20;;;4.07;70.56;98549.97;4983854;28;20062;-81
2020/12/11 07:31:02;;;;;;;19.33;12.77;;;4.10;85.30;;;4.09;70.15;98542.53;4984320;28;20075;-81
2020/12/11 07:33:32;;;;;;;21.27;12.93;;;4.10;85.20;;;4.09;69.71;98535.31;4984563;28;20570;-81
2020/12/11 07:36:03;;;;;;;21.30;13.02;;;4.10;85.20;;;4.05;70.05;98534.00;4984704;28;20097;-81
2020/12/11 07:38:32;;;;;;;19.88;12.90;;;4.10;85.00;;;4.11;69.62;98537.78;4984713;28;20145;-80
2020/12/11 07:41:04;;;;;;;21.33;13.00;;;4.10;85.00;;;4.11;69.71;98535.97;4984119;28;20070;-81
2020/12/11 07:43:30;;;;;;;21.58;12.98;;;4.10;85.10;;;4.11;70.23;98546.72;4984971;28;20070;-80
2020/12/11 07:45:57;;;;;;;24.00;12.77;;;4.10;85.00;;;4.12;69.63;98542.16;4983659;28;20047;-81
2020/12/11 07:48:25;;;;;;;20.67;12.93;;;4.10;85.00;;;4.09;69.69;98545.22;4985481;28;20055;-81
2020/12/11 07:50:52;;;;;;;20.10;12.65;;;4.10;84.90;;;4.06;69.93;98548.31;4985023;28;20066;-81
2020/12/11 07:53:19;;;;;;;19.73;11.80;;;4.10;85.10;;;4.06;69.94;98553.72;4984930;28;20078;-81
2020/12/11 07:55:46;;;;;;;20.65;12.95;;;4.10;85.00;;;4.13;69.63;98548.38;4980862;28;20133;-81
2020/12/11 07:58:13;;;;;;;22.23;12.50;;;4.10;84.80;;;4.15;69.94;98547.19;4983743;28;20073;-81
2020/12/11 08:00:40;;;;;;;19.85;11.65;;;4.10;84.90;;;4.15;69.44;98539.09;4981441;28;20051;-81
2020/12/11 08:03:08;;;;;;;20.88;11.93;;;4.20;85.00;;;4.16;69.34;98529.97;4971161;28;20078;-81
2020/12/11 08:05:40;;;;;;;21.95;12.65;;;4.20;84.70;;;4.12;69.94;98531.41;4965815;28;20118;-81
2020/12/11 08:08:08;;;;;;;20.17;12.02;;;4.20;84.80;;;4.11;69.52;98533.28;4965577;28;20047;-81
2020/12/11 08:10:39;;;;;;;20.35;11.93;;;4.20;84.80;;;4.14;69.48;98528.53;4980879;28;20043;-81
2020/12/11 08:13:17;;;;;;;19.23;11.93;;;4.30;84.70;;;4.19;70.26;98545.75;4982861;28;20050;-81
2020/12/11 08:15:46;;;;;;;18.92;11.82;;;4.40;85.00;;;4.24;69.95;98537.09;4976009;28;20171;-82
2020/12/11 08:18:24;;;;;;;21.23;12.65;;;4.30;84.80;;;4.22;70.09;98542.66;4974643;28;20081;-83
2020/12/11 08:20:55;;;;;;;19.25;11.50;;;4.30;85.00;;;4.24;69.70;98562.16;4975168;28;20046;-83
2020/12/11 08:23:36;;;;;;;21.20;12.77;;;4.30;85.10;;;4.28;69.83;98549.16;4975817;28;20466;-82
2020/12/11 08:26:17;;;;;;;20.20;12.52;;;4.40;84.80;;;4.28;70.16;98547.31;4975760;28;20057;-83
2020/12/11 08:28:46;;;;;;;18.90;11.38;;;4.40;85.00;;;4.31;69.98;98546.06;4978453;28;20066;-84
2020/12/11 08:31:22;;;;;;;18.90;11.57;;;4.50;84.80;;;4.36;69.89;98543.66;4981578;28;20051;-84
2020/12/11 08:33:51;;;;;;;20.15;11.95;;;4.50;85.00;;;4.33;70.25;98548.59;4978682;28;20039;-84
2020/12/11 08:36:25;;;;;;;17.42;11.48;;;4.50;84.60;;;4.32;69.83;98545.03;4977904;28;20047;-84
2020/12/11 08:39:24;;;;;;;18.25;11.27;;;4.60;84.50;;;4.36;69.86;98545.50;4978953;28;20070;-83
2020/12/11 08:42:08;;;;;;;16.77;10.52;;;4.60;84.50;;;4.36;69.18;98538.25;4976759;28;20500;-83
2020/12/11 08:44:58;;;;;;;20.20;12.77;;;4.60;84.10;;;4.38;69.53;98522.75;4977212;28;20103;-84
2020/12/11 08:50:24;;;;;;;18.30;11.82;;;4.70;84.40;;;4.44;70.26;98519.25;4951241;28;20434;-83
2020/12/11 08:52:52;;;;;;;19.25;11.68;;;4.80;84.40;;;4.48;70.23;98522.41;4978792;28;20078;-83
2020/12/11 08:55:19;;;;;;;19.13;12.10;;;4.70;84.70;;;4.48;70.05;98515.16;4979112;28;20043;-83
2020/12/11 08:57:49;;;;;;;18.08;11.13;;;4.80;84.50;;;4.50;70.83;98515.78;4980222;28;20047;-84
2020/12/11 09:00:17;;;;;;;17.13;11.03;;;4.80;84.70;;;4.55;70.45;98520.59;4983320;28;20047;-84
2020/12/11 09:02:44;;;;;;;16.95;11.00;;;4.90;85.10;;;4.61;70.76;98509.03;4981242;28;20050;-84
2020/12/11 09:05:11;;;;;;;16.75;10.98;;;4.80;85.20;;;4.59;70.41;98521.03;4981137;28;20376;-84
2020/12/11 09:07:38;;;;;;;18.67;10.98;;;4.80;84.90;;;4.58;70.71;98506.72;4981740;28;20050;-84
2020/12/11 09:10:06;;;;;;;17.80;10.27;;;4.90;85.10;;;4.59;70.37;98500.31;4979107;28;20082;-84
2020/12/11 09:12:36;;;;;;;17.83;11.27;;;4.90;84.80;;;4.60;71.10;98510.06;4979692;28;20048;-83
2020/12/11 09:15:07;;;;;;;17.42;10.70;;;4.90;84.80;;;4.64;70.81;98505.94;4980021;28;20076;-83
2020/12/11 09:17:34;;;;;;;17.10;10.55;;;4.90;85.00;;;4.61;70.72;98502.81;4980081;28;20109;-83
2020/12/11 09:20:01;;;;;;;16.42;10.43;;;5.00;84.90;;;4.64;71.16;98502.41;4980314;28;20038;-83
2020/12/11 09:22:28;;;;;;;16.63;10.55;;;5.00;85.20;;;4.65;70.81;98498.72;4980444;28;20079;-83
2020/12/11 09:24:55;;;;;;;17.25;10.30;;;5.00;85.10;;;4.64;70.89;98500.53;4980674;28;20048;-84
2020/12/11 09:27:22;;;;;;;16.67;10.43;;;5.00;84.60;;;4.69;70.86;98494.59;4981269;28;20091;-83
2020/12/11 09:29:51;;;;;;;17.58;10.68;;;5.10;84.60;;;4.75;71.01;98507.28;4979476;28;20054;-84
2020/12/11 09:32:26;;;;;;;15.70;9.98;;;5.10;84.70;;;4.78;71.02;98497.94;4976535;28;20487;-84
2020/12/11 09:34:52;;;;;;;17.42;11.10;;;5.10;84.90;;;4.83;71.23;98500.88;4981775;28;20043;-82
2020/12/11 09:37:21;;;;;;;16.65;10.68;;;5.10;85.00;;;4.87;71.11;98483.28;4987555;28;20047;-82
2020/12/11 09:39:48;;;;;;;18.17;11.05;;;5.10;84.80;;;4.88;70.81;98482.28;4987848;28;20051;-82
2020/12/11 09:42:31;;;;;;;16.35;10.38;;;5.10;84.70;;;4.91;70.89;98487.25;4987063;28;20055;-83
2020/12/11 09:45:07;;;;;;;16.50;10.45;;;5.10;84.70;;;4.93;70.28;98485.22;4985225;28;20403;-82
2020/12/11 09:47:43;;;;;;;16.50;10.05;;;5.20;84.70;;;4.94;70.75;98472.56;4986794;28;20053;-82
2020/12/11 09:50:28;;;;;;;18.42;10.18;;;5.20;84.70;;;4.97;70.88;98470.31;4992967;28;20039;-83
2020/12/11 09:53:02;;;;;;;15.98;10.13;;;5.20;84.80;;;4.97;70.89;98475.69;4991451;28;20047;-84
2020/12/11 09:55:37;;;;;;;15.82;10.43;;;5.20;84.80;;;4.97;70.54;98480.22;4973719;28;20056;-83
2020/12/11 09:58:04;;;;;;;18.15;10.60;;;5.30;85.00;;;4.97;70.44;98475.69;4972833;28;20055;-83
2020/12/11 10:00:31;;;;;;;15.07;9.73;;;5.30;84.40;;;4.94;70.65;98470.69;4970672;28;20058;-82
2020/12/11 10:03:01;;;;;;;15.32;9.95;;;5.40;84.20;;;4.98;70.61;98466.56;4986510;28;20051;-83
2020/12/11 10:05:28;;;;;;;14.23;9.20;;;5.40;84.10;;;5.04;70.67;98457.66;4989754;28;20047;-83
2020/12/11 10:07:56;;;;;;;15.30;9.30;;;5.40;84.30;;;4.97;70.78;98451.44;4989642;28;20065;-83
2020/12/11 10:10:23;;;;;;;16.17;10.25;;;5.40;84.20;;;5.05;70.87;98453.13;4989302;28;20503;-83
2020/12/11 10:12:50;;;;;;;16.80;9.90;;;5.40;84.30;;;5.02;70.63;98448.94;4989526;28;20050;-84
2020/12/11 10:15:20;;;;;;;15.13;9.63;;;5.50;84.20;;;5.05;70.87;98455.81;4989148;28;20046;-83
2020/12/11 10:17:48;;;;;;;14.25;9.65;;;5.50;84.50;;;5.08;71.21;98440.09;4989730;28;20047;-83
2020/12/11 10:20:18;;;;;;;15.93;10.15;;;5.50;84.60;;;5.08;71.06;98440.09;4989470;28;20110;-83
2020/12/11 10:22:47;;;;;;;15.48;9.65;;;5.50;84.70;;;5.07;71.07;98434.88;4989516;28;20038;-83
2020/12/11 10:25:14;;;;;;;16.00;10.32;;;5.50;84.60;;;5.09;71.02;98436.34;4988783;28;20070;-84
2020/12/11 10:27:41;;;;;;;14.43;9.13;;;5.60;84.20;;;5.12;70.64;98431.56;4969927;28;20055;-83
2020/12/11 10:30:08;;;;;;;16.33;10.32;;;5.80;84.30;;;5.16;71.13;98424.75;4970117;28;20098;-83
2020/12/11 10:32:35;;;;;;;14.38;9.63;;;5.60;84.30;;;5.15;71.01;98432.00;4984037;28;20082;-83